createdAt,value
2017-09-25T00:00:45.540Z,1012.41
2017-09-25T00:01:45.540Z,1012.45
2017-09-25T00:02:45.543Z,1012.39
2017-09-25T00:03:45.542Z,1012.39
2017-09-25T00:04:45.544Z,1012.39
2017-09-25T00:05:45.544Z,1012.36
2017-09-25T00:06:45.542Z,1012.36
2017-09-25T00:07:45.545Z,1012.33
2017-09-25T00:08:45.545Z,1012.34
2017-09-25T00:09:45.545Z,1012.33
2017-09-25T00:10:45.548Z,1012.32
2017-09-25T00:11:45.547Z,1012.31
2017-09-25T00:12:45.546Z,1012.35
2017-09-25T00:13:45.546Z,1012.31
2017-09-25T00:14:45.547Z,1012.31
2017-09-25T00:15:45.548Z,1012.32
2017-09-25T00:16:45.548Z,1012.31
2017-09-25T00:17:45.548Z,1012.30
2017-09-25T00:18:45.549Z,1012.33
2017-09-25T00:19:45.550Z,1012.29
2017-09-25T00:20:45.549Z,1012.32
2017-09-25T00:21:45.549Z,1012.28
2017-09-25T00:22:45.550Z,1012.31
2017-09-25T00:23:45.551Z,1012.32
2017-09-25T00:24:45.550Z,1012.27
2017-09-25T00:25:45.553Z,1012.27
2017-09-25T00:26:45.557Z,1012.28
2017-09-25T00:27:45.552Z,1012.31
2017-09-25T00:28:45.552Z,1012.24
2017-09-25T00:29:45.553Z,1012.29
2017-09-25T00:30:45.552Z,1012.30
2017-09-25T00:31:45.553Z,1012.24
2017-09-25T00:32:45.554Z,1012.20
2017-09-25T00:33:45.554Z,1012.20
2017-09-25T00:34:45.559Z,1012.19
2017-09-25T00:35:45.556Z,1012.17
2017-09-25T00:36:45.555Z,1012.20
2017-09-25T00:37:45.556Z,1012.18
2017-09-25T00:38:45.557Z,1012.16
2017-09-25T00:39:45.557Z,1012.18
2017-09-25T00:40:45.557Z,1012.16
2017-09-25T00:41:45.558Z,1012.18
2017-09-25T00:42:45.558Z,1012.17
2017-09-25T00:43:45.559Z,1012.17
2017-09-25T00:44:45.560Z,1012.21
2017-09-25T00:45:45.560Z,1012.21
2017-09-25T00:46:45.560Z,1012.19
2017-09-25T00:47:45.562Z,1012.20
2017-09-25T00:48:45.560Z,1012.19
2017-09-25T00:49:45.562Z,1012.21
2017-09-25T00:50:45.563Z,1012.20
2017-09-25T00:51:45.563Z,1012.21
2017-09-25T00:52:45.564Z,1012.20
2017-09-25T00:53:45.564Z,1012.17
2017-09-25T00:54:45.569Z,1012.20
2017-09-25T00:55:45.564Z,1012.15
2017-09-25T00:56:45.566Z,1012.18
2017-09-25T00:57:45.565Z,1012.17
2017-09-25T00:58:45.566Z,1012.09
2017-09-25T00:59:45.567Z,1012.12
2017-09-25T01:00:45.567Z,1012.08
2017-09-25T01:01:45.568Z,1012.11
2017-09-25T01:02:45.568Z,1012.09
2017-09-25T01:03:45.569Z,1012.04
2017-09-25T01:04:45.568Z,1012.03
2017-09-25T01:05:45.572Z,1012.01
2017-09-25T01:06:45.571Z,1011.99
2017-09-25T01:07:45.570Z,1011.96
2017-09-25T01:08:45.569Z,1011.96
2017-09-25T01:09:45.570Z,1011.94
2017-09-25T01:10:45.570Z,1011.93
2017-09-25T01:11:45.572Z,1011.95
2017-09-25T01:12:45.570Z,1011.95
2017-09-25T01:13:45.571Z,1011.87
2017-09-25T01:14:45.572Z,1011.91
2017-09-25T01:15:45.572Z,1011.91
2017-09-25T01:16:45.572Z,1011.88
2017-09-25T01:17:45.572Z,1011.88
2017-09-25T01:18:45.572Z,1011.86
2017-09-25T01:19:45.573Z,1011.87
2017-09-25T01:20:45.572Z,1011.84
2017-09-25T01:21:45.573Z,1011.85
2017-09-25T01:22:45.574Z,1011.84
2017-09-25T01:23:45.574Z,1011.83
2017-09-25T01:24:45.574Z,1011.83
2017-09-25T01:25:45.578Z,1011.84
2017-09-25T01:26:45.576Z,1011.84
2017-09-25T01:27:45.575Z,1011.85
2017-09-25T01:28:45.578Z,1011.84
2017-09-25T01:29:45.576Z,1011.84
2017-09-25T01:30:45.575Z,1011.85
2017-09-25T01:31:45.575Z,1011.85
2017-09-25T01:32:45.574Z,1011.85
2017-09-25T01:33:45.574Z,1011.89
2017-09-25T01:34:45.576Z,1011.84
2017-09-25T01:35:45.575Z,1011.85
2017-09-25T01:36:45.574Z,1011.84
2017-09-25T01:37:45.574Z,1011.85
2017-09-25T01:38:45.576Z,1011.81
2017-09-25T01:39:45.575Z,1011.82
2017-09-25T01:40:45.574Z,1011.85
2017-09-25T01:41:45.576Z,1011.80
2017-09-25T01:42:45.574Z,1011.82
2017-09-25T01:43:45.574Z,1011.81
2017-09-25T01:44:45.574Z,1011.81
2017-09-25T01:45:45.574Z,1011.77
2017-09-25T01:46:45.575Z,1011.76
2017-09-25T01:47:45.574Z,1011.75
2017-09-25T01:48:45.573Z,1011.74
2017-09-25T01:49:45.572Z,1011.75
2017-09-25T01:50:45.572Z,1011.77
2017-09-25T01:51:45.574Z,1011.78
2017-09-25T01:52:45.572Z,1011.79
2017-09-25T01:53:45.572Z,1011.76
2017-09-25T01:54:45.572Z,1011.80
2017-09-25T01:55:45.577Z,1011.79
2017-09-25T01:56:45.571Z,1011.76
2017-09-25T01:57:45.571Z,1011.79
2017-09-25T01:58:45.571Z,1011.79
2017-09-25T01:59:45.573Z,1011.75
2017-09-25T02:00:45.569Z,1011.77
2017-09-25T02:01:45.568Z,1011.74
2017-09-25T02:02:45.567Z,1011.75
2017-09-25T02:03:45.568Z,1011.75
2017-09-25T02:04:45.567Z,1011.77
2017-09-25T02:05:45.568Z,1011.79
2017-09-25T02:06:45.566Z,1011.76
2017-09-25T02:07:45.566Z,1011.76
2017-09-25T02:08:45.566Z,1011.74
2017-09-25T02:09:45.566Z,1011.77
2017-09-25T02:10:45.564Z,1011.75
2017-09-25T02:11:45.566Z,1011.75
2017-09-25T02:12:45.563Z,1011.71
2017-09-25T02:13:45.563Z,1011.71
2017-09-25T02:14:45.562Z,1011.68
2017-09-25T02:15:45.561Z,1011.68
2017-09-25T02:16:45.562Z,1011.71
2017-09-25T02:17:45.561Z,1011.70
2017-09-25T02:18:45.560Z,1011.72
2017-09-25T02:19:45.561Z,1011.69
2017-09-25T02:20:45.557Z,1011.68
2017-09-25T02:21:45.559Z,1011.68
2017-09-25T02:22:45.559Z,1011.68
2017-09-25T02:23:45.559Z,1011.69
2017-09-25T02:24:45.558Z,1011.69
2017-09-25T02:25:45.557Z,1011.67
2017-09-25T02:26:45.559Z,1011.63
2017-09-25T02:27:45.558Z,1011.64
2017-09-25T02:28:45.555Z,1011.62
2017-09-25T02:29:45.557Z,1011.63
2017-09-25T02:30:45.557Z,1011.64
2017-09-25T02:31:45.555Z,1011.65
2017-09-25T02:32:45.554Z,1011.62
2017-09-25T02:33:45.555Z,1011.61
2017-09-25T02:34:45.554Z,1011.63
2017-09-25T02:35:45.554Z,1011.60
2017-09-25T02:36:45.554Z,1011.63
2017-09-25T02:37:45.552Z,1011.60
2017-09-25T02:38:45.552Z,1011.59
2017-09-25T02:39:45.552Z,1011.56
2017-09-25T02:40:45.550Z,1011.58
2017-09-25T02:41:45.551Z,1011.54
2017-09-25T02:42:45.550Z,1011.54
2017-09-25T02:43:45.550Z,1011.52
2017-09-25T02:44:45.549Z,1011.50
2017-09-25T02:45:45.547Z,1011.54
2017-09-25T02:46:45.549Z,1011.50
2017-09-25T02:47:45.547Z,1011.49
2017-09-25T02:48:45.545Z,1011.47
2017-09-25T02:49:45.546Z,1011.48
2017-09-25T02:50:45.546Z,1011.47
2017-09-25T02:51:45.546Z,1011.45
2017-09-25T02:52:45.544Z,1011.47
2017-09-25T02:53:45.544Z,1011.48
2017-09-25T02:54:45.544Z,1011.46
2017-09-25T02:55:45.543Z,1011.44
2017-09-25T02:56:45.579Z,1011.47
2017-09-25T02:57:45.542Z,1011.45
2017-09-25T02:58:45.540Z,1011.46
2017-09-25T02:59:45.543Z,1011.44
2017-09-25T03:00:45.539Z,1011.42
2017-09-25T03:01:45.539Z,1011.41
2017-09-25T03:02:45.543Z,1011.37
2017-09-25T03:03:45.538Z,1011.39
2017-09-25T03:04:45.538Z,1011.38
2017-09-25T03:05:45.539Z,1011.38
2017-09-25T03:06:45.537Z,1011.38
2017-09-25T03:07:45.537Z,1011.37
2017-09-25T03:08:45.536Z,1011.37
2017-09-25T03:09:45.534Z,1011.45
2017-09-25T03:10:45.535Z,1011.45
2017-09-25T03:11:45.535Z,1011.47
2017-09-25T03:12:45.532Z,1011.43
2017-09-25T03:13:45.533Z,1011.46
2017-09-25T03:14:45.533Z,1011.43
2017-09-25T03:15:45.534Z,1011.43
2017-09-25T03:16:45.531Z,1011.38
2017-09-25T03:17:45.530Z,1011.38
2017-09-25T03:18:45.534Z,1011.35
2017-09-25T03:19:45.530Z,1011.35
2017-09-25T03:20:45.530Z,1011.40
2017-09-25T03:21:45.530Z,1011.39
2017-09-25T03:22:45.529Z,1011.43
2017-09-25T03:23:45.528Z,1011.41
2017-09-25T03:24:45.528Z,1011.43
2017-09-25T03:25:45.528Z,1011.40
2017-09-25T03:26:45.528Z,1011.38
2017-09-25T03:27:45.528Z,1011.36
2017-09-25T03:28:45.526Z,1011.36
2017-09-25T03:29:45.527Z,1011.37
2017-09-25T03:30:45.528Z,1011.36
2017-09-25T03:31:45.526Z,1011.39
2017-09-25T03:32:45.526Z,1011.37
2017-09-25T03:33:45.528Z,1011.37
2017-09-25T03:34:45.526Z,1011.42
2017-09-25T03:35:45.525Z,1011.41
2017-09-25T03:36:45.524Z,1011.38
2017-09-25T03:37:45.525Z,1011.35
2017-09-25T03:38:45.524Z,1011.35
2017-09-25T03:39:45.524Z,1011.35
2017-09-25T03:40:45.523Z,1011.33
2017-09-25T03:41:45.523Z,1011.34
2017-09-25T03:42:45.525Z,1011.31
2017-09-25T03:43:45.524Z,1011.35
2017-09-25T03:44:45.521Z,1011.33
2017-09-25T03:45:45.521Z,1011.34
2017-09-25T03:46:45.521Z,1011.33
2017-09-25T03:47:45.521Z,1011.37
2017-09-25T03:48:45.521Z,1011.34
2017-09-25T03:49:45.521Z,1011.34
2017-09-25T03:50:45.521Z,1011.34
2017-09-25T03:51:45.520Z,1011.34
2017-09-25T03:52:45.519Z,1011.35
2017-09-25T03:53:45.519Z,1011.35
2017-09-25T03:54:45.519Z,1011.36
2017-09-25T03:55:45.519Z,1011.32
2017-09-25T03:56:45.518Z,1011.34
2017-09-25T03:57:45.518Z,1011.33
2017-09-25T03:58:45.520Z,1011.38
2017-09-25T03:59:45.518Z,1011.37
2017-09-25T04:00:45.518Z,1011.36
2017-09-25T04:01:45.519Z,1011.37
2017-09-25T04:02:45.518Z,1011.36
2017-09-25T04:03:45.518Z,1011.39
2017-09-25T04:04:45.517Z,1011.35
2017-09-25T04:05:45.516Z,1011.36
2017-09-25T04:06:45.517Z,1011.39
2017-09-25T04:07:45.519Z,1011.37
2017-09-25T04:08:45.517Z,1011.40
2017-09-25T04:09:45.518Z,1011.37
2017-09-25T04:10:45.516Z,1011.40
2017-09-25T04:11:45.517Z,1011.35
2017-09-25T04:12:45.550Z,1011.38
2017-09-25T04:13:45.517Z,1011.36
2017-09-25T04:14:45.517Z,1011.40
2017-09-25T04:15:45.515Z,1011.38
2017-09-25T04:16:45.520Z,1011.36
2017-09-25T04:17:45.515Z,1011.34
2017-09-25T04:18:45.515Z,1011.36
2017-09-25T04:19:45.515Z,1011.34
2017-09-25T04:20:45.521Z,1011.33
2017-09-25T04:21:45.515Z,1011.32
2017-09-25T04:22:45.517Z,1011.36
2017-09-25T04:23:45.515Z,1011.36
2017-09-25T04:24:45.515Z,1011.38
2017-09-25T04:25:45.514Z,1011.39
2017-09-25T04:26:45.514Z,1011.36
2017-09-25T04:27:45.515Z,1011.33
2017-09-25T04:28:45.512Z,1011.33
2017-09-25T04:29:45.515Z,1011.33
2017-09-25T04:30:45.514Z,1011.30
2017-09-25T04:31:45.513Z,1011.32
2017-09-25T04:32:45.518Z,1011.32
2017-09-25T04:33:45.514Z,1011.31
2017-09-25T04:34:45.514Z,1011.30
2017-09-25T04:35:45.514Z,1011.35
2017-09-25T04:36:45.513Z,1011.29
2017-09-25T04:37:45.515Z,1011.30
2017-09-25T04:38:45.515Z,1011.30
2017-09-25T04:39:45.513Z,1011.32
2017-09-25T04:40:45.513Z,1011.32
2017-09-25T04:41:45.513Z,1011.33
2017-09-25T04:42:45.515Z,1011.31
2017-09-25T04:43:45.514Z,1011.32
2017-09-25T04:44:45.513Z,1011.29
2017-09-25T04:45:45.515Z,1011.35
2017-09-25T04:46:45.521Z,1011.33
2017-09-25T04:47:45.515Z,1011.36
2017-09-25T04:48:45.521Z,1011.28
2017-09-25T04:49:45.514Z,1011.29
2017-09-25T04:50:45.515Z,1011.28
2017-09-25T04:51:45.515Z,1011.34
2017-09-25T04:52:45.513Z,1011.32
2017-09-25T04:53:45.516Z,1011.36
2017-09-25T04:54:45.514Z,1011.34
2017-09-25T04:55:45.517Z,1011.36
2017-09-25T04:56:45.515Z,1011.36
2017-09-25T04:57:45.516Z,1011.38
2017-09-25T04:58:45.516Z,1011.35
2017-09-25T04:59:45.516Z,1011.35
2017-09-25T05:00:45.516Z,1011.36
2017-09-25T05:01:45.517Z,1011.40
2017-09-25T05:02:45.518Z,1011.39
2017-09-25T05:03:45.516Z,1011.40
2017-09-25T05:04:45.516Z,1011.40
2017-09-25T05:05:45.517Z,1011.37
2017-09-25T05:06:45.518Z,1011.39
2017-09-25T05:07:45.520Z,1011.37
2017-09-25T05:08:45.518Z,1011.39
2017-09-25T05:09:45.517Z,1011.40
2017-09-25T05:10:45.518Z,1011.41
2017-09-25T05:11:45.517Z,1011.37
2017-09-25T05:12:45.522Z,1011.42
2017-09-25T05:13:45.520Z,1011.38
2017-09-25T05:14:45.518Z,1011.36
2017-09-25T05:15:45.520Z,1011.38
2017-09-25T05:16:45.518Z,1011.40
2017-09-25T05:17:45.520Z,1011.41
2017-09-25T05:18:45.520Z,1011.41
2017-09-25T05:19:45.520Z,1011.39
2017-09-25T05:20:45.518Z,1011.41
2017-09-25T05:21:45.518Z,1011.41
2017-09-25T05:22:45.519Z,1011.42
2017-09-25T05:23:45.519Z,1011.42
2017-09-25T05:24:45.518Z,1011.41
2017-09-25T05:25:45.519Z,1011.43
2017-09-25T05:26:45.519Z,1011.43
2017-09-25T05:27:45.521Z,1011.40
2017-09-25T05:28:45.520Z,1011.43
2017-09-25T05:29:45.518Z,1011.40
2017-09-25T05:30:45.519Z,1011.45
2017-09-25T05:31:45.519Z,1011.47
2017-09-25T05:32:45.519Z,1011.44
2017-09-25T05:33:45.519Z,1011.46
2017-09-25T05:34:45.519Z,1011.49
2017-09-25T05:35:45.519Z,1011.49
2017-09-25T05:36:45.553Z,1011.50
2017-09-25T05:37:45.523Z,1011.50
2017-09-25T05:38:45.518Z,1011.50
2017-09-25T05:39:45.517Z,1011.49
2017-09-25T05:40:45.519Z,1011.52
2017-09-25T05:41:45.518Z,1011.53
2017-09-25T05:42:45.519Z,1011.57
2017-09-25T05:43:45.518Z,1011.57
2017-09-25T05:44:45.517Z,1011.52
2017-09-25T05:45:45.519Z,1011.55
2017-09-25T05:46:45.516Z,1011.54
2017-09-25T05:47:45.517Z,1011.51
2017-09-25T05:48:45.517Z,1011.49
2017-09-25T05:49:45.517Z,1011.57
2017-09-25T05:50:45.518Z,1011.58
2017-09-25T05:51:45.518Z,1011.59
2017-09-25T05:52:45.517Z,1011.61
2017-09-25T05:53:45.517Z,1011.57
2017-09-25T05:54:45.519Z,1011.60
2017-09-25T05:55:45.520Z,1011.61
2017-09-25T05:56:45.517Z,1011.65
2017-09-25T05:57:45.517Z,1011.63
2017-09-25T05:58:45.519Z,1011.63
2017-09-25T05:59:45.517Z,1011.64
2017-09-25T06:00:45.516Z,1011.62
2017-09-25T06:01:45.518Z,1011.64
2017-09-25T06:02:45.517Z,1011.65
2017-09-25T06:03:45.520Z,1011.66
2017-09-25T06:04:45.523Z,1011.63
2017-09-25T06:05:45.518Z,1011.66
2017-09-25T06:06:45.518Z,1011.66
2017-09-25T06:07:45.518Z,1011.65
2017-09-25T06:08:45.518Z,1011.69
2017-09-25T06:09:45.519Z,1011.61
2017-09-25T06:10:45.518Z,1011.66
2017-09-25T06:11:45.520Z,1011.69
2017-09-25T06:12:45.518Z,1011.68
2017-09-25T06:13:45.520Z,1011.67
2017-09-25T06:14:45.518Z,1011.68
2017-09-25T06:15:45.520Z,1011.62
2017-09-25T06:16:45.551Z,1011.68
2017-09-25T06:17:45.519Z,1011.72
2017-09-25T06:18:45.520Z,1011.68
2017-09-25T06:19:45.520Z,1011.72
2017-09-25T06:20:45.522Z,1011.68
2017-09-25T06:21:45.522Z,1011.68
2017-09-25T06:22:45.521Z,1011.68
2017-09-25T06:23:45.521Z,1011.62
2017-09-25T06:24:45.522Z,1011.64
2017-09-25T06:25:45.524Z,1011.66
2017-09-25T06:26:45.524Z,1011.64
2017-09-25T06:27:45.525Z,1011.65
2017-09-25T06:28:45.526Z,1011.66
2017-09-25T06:29:45.524Z,1011.65
2017-09-25T06:30:45.524Z,1011.65
2017-09-25T06:31:45.525Z,1011.66
2017-09-25T06:32:45.527Z,1011.68
2017-09-25T06:33:45.525Z,1011.64
2017-09-25T06:34:45.526Z,1011.63
2017-09-25T06:35:45.526Z,1011.63
2017-09-25T06:36:45.527Z,1011.61
2017-09-25T06:37:45.529Z,1011.65
2017-09-25T06:38:45.528Z,1011.63
2017-09-25T06:39:45.530Z,1011.64
2017-09-25T06:40:45.529Z,1011.62
2017-09-25T06:41:45.531Z,1011.57
2017-09-25T06:42:45.530Z,1011.58
2017-09-25T06:43:45.530Z,1011.55
2017-09-25T06:44:45.531Z,1011.58
2017-09-25T06:45:45.531Z,1011.59
2017-09-25T06:46:45.532Z,1011.59
2017-09-25T06:47:45.534Z,1011.58
2017-09-25T06:48:45.535Z,1011.60
2017-09-25T06:49:45.533Z,1011.59
2017-09-25T06:50:45.534Z,1011.59
2017-09-25T06:51:45.534Z,1011.57
2017-09-25T06:52:45.535Z,1011.59
2017-09-25T06:53:45.536Z,1011.56
2017-09-25T06:54:45.537Z,1011.55
2017-09-25T06:55:45.537Z,1011.56
2017-09-25T06:56:45.537Z,1011.59
2017-09-25T06:57:45.538Z,1011.57
2017-09-25T06:58:45.540Z,1011.59
2017-09-25T06:59:45.540Z,1011.60
2017-09-25T07:00:45.542Z,1011.63
2017-09-25T07:01:45.543Z,1011.60
2017-09-25T07:02:45.543Z,1011.58
2017-09-25T07:03:45.544Z,1011.60
2017-09-25T07:04:45.545Z,1011.63
2017-09-25T07:05:45.547Z,1011.61
2017-09-25T07:06:45.552Z,1011.60
2017-09-25T07:07:45.548Z,1011.59
2017-09-25T07:08:45.549Z,1011.63
2017-09-25T07:09:45.551Z,1011.62
2017-09-25T07:10:45.553Z,1011.68
2017-09-25T07:11:45.556Z,1011.70
2017-09-25T07:12:45.553Z,1011.71
2017-09-25T07:13:45.564Z,1011.70
2017-09-25T07:14:45.559Z,1011.63
2017-09-25T07:15:45.563Z,1011.61
2017-09-25T07:16:45.561Z,1011.59
2017-09-25T07:17:45.564Z,1011.56
2017-09-25T07:18:45.565Z,1011.61
2017-09-25T07:19:45.569Z,1011.63
2017-09-25T07:20:45.568Z,1011.65
2017-09-25T07:21:45.575Z,1011.68
2017-09-25T07:22:45.602Z,1011.62
2017-09-25T07:23:45.575Z,1011.59
2017-09-25T07:24:45.577Z,1011.60
2017-09-25T07:25:45.579Z,1011.57
2017-09-25T07:26:45.580Z,1011.59
2017-09-25T07:27:45.582Z,1011.58
2017-09-25T07:28:45.583Z,1011.58
2017-09-25T07:29:45.586Z,1011.56
2017-09-25T07:30:45.588Z,1011.59
2017-09-25T07:31:45.591Z,1011.55
2017-09-25T07:32:45.591Z,1011.57
2017-09-25T07:33:45.594Z,1011.59
2017-09-25T07:34:45.595Z,1011.64
2017-09-25T07:35:45.597Z,1011.62
2017-09-25T07:36:45.598Z,1011.64
2017-09-25T07:37:45.601Z,1011.64
2017-09-25T07:38:45.602Z,1011.66
2017-09-25T07:39:45.605Z,1011.67
2017-09-25T07:40:45.606Z,1011.66
2017-09-25T07:41:45.609Z,1011.67
2017-09-25T07:42:45.611Z,1011.70
2017-09-25T07:43:45.612Z,1011.73
2017-09-25T07:44:45.613Z,1011.65
2017-09-25T07:45:45.617Z,1011.63
2017-09-25T07:46:45.618Z,1011.64
2017-09-25T07:47:45.621Z,1011.66
2017-09-25T07:48:45.623Z,1011.66
2017-09-25T07:49:45.624Z,1011.65
2017-09-25T07:50:45.626Z,1011.71
2017-09-25T07:51:45.630Z,1011.75
2017-09-25T07:52:45.630Z,1011.75
2017-09-25T07:53:45.633Z,1011.75
2017-09-25T07:54:45.634Z,1011.71
2017-09-25T07:55:45.638Z,1011.69
2017-09-25T07:56:45.638Z,1011.66
2017-09-25T07:57:45.641Z,1011.66
2017-09-25T07:58:45.644Z,1011.77
2017-09-25T07:59:45.646Z,1011.72
2017-09-25T08:00:45.648Z,1011.76
2017-09-25T08:01:45.650Z,1011.67
2017-09-25T08:02:45.653Z,1011.70
2017-09-25T08:03:45.656Z,1011.67
2017-09-25T08:04:45.659Z,1011.68
2017-09-25T08:05:45.658Z,1011.65
2017-09-25T08:06:45.668Z,1011.65
2017-09-25T08:07:45.666Z,1011.68
2017-09-25T08:08:45.667Z,1011.69
2017-09-25T08:09:45.669Z,1011.71
2017-09-25T08:10:45.672Z,1011.67
2017-09-25T08:11:45.674Z,1011.68
2017-09-25T08:12:45.676Z,1011.74
2017-09-25T08:13:45.682Z,1011.77
2017-09-25T08:14:45.680Z,1011.76
2017-09-25T08:15:45.684Z,1011.81
2017-09-25T08:16:45.685Z,1011.79
2017-09-25T08:17:45.688Z,1011.89
2017-09-25T08:18:45.691Z,1011.89
2017-09-25T08:19:45.693Z,1011.87
2017-09-25T08:20:45.700Z,1011.89
2017-09-25T08:21:45.697Z,1011.86
2017-09-25T08:22:45.702Z,1011.83
2017-09-25T08:23:45.703Z,1011.87
2017-09-25T08:24:45.708Z,1011.81
2017-09-25T08:25:45.709Z,1011.85
2017-09-25T08:26:45.717Z,1011.78
2017-09-25T08:27:45.715Z,1011.81
2017-09-25T08:28:45.718Z,1011.77
2017-09-25T08:29:45.720Z,1011.77
2017-09-25T08:30:45.722Z,1011.84
2017-09-25T08:31:45.725Z,1011.84
2017-09-25T08:32:45.727Z,1011.96
2017-09-25T08:33:45.734Z,1011.91
2017-09-25T08:34:45.733Z,1011.89
2017-09-25T08:35:45.738Z,1012.00
2017-09-25T08:36:45.740Z,1012.00
2017-09-25T08:37:45.743Z,1011.91
2017-09-25T08:38:45.746Z,1011.98
2017-09-25T08:39:45.747Z,1011.97
2017-09-25T08:40:45.751Z,1012.01
2017-09-25T08:41:45.754Z,1011.94
2017-09-25T08:42:45.759Z,1012.01
2017-09-25T08:43:45.760Z,1011.98
2017-09-25T08:44:45.764Z,1011.98
2017-09-25T08:45:45.771Z,1012.01
2017-09-25T08:46:45.769Z,1011.99
2017-09-25T08:47:45.772Z,1011.98
2017-09-25T08:48:45.773Z,1012.00
2017-09-25T08:49:45.778Z,1011.98
2017-09-25T08:50:45.779Z,1011.95
2017-09-25T08:51:45.784Z,1012.00
2017-09-25T08:52:45.783Z,1011.99
2017-09-25T08:53:45.788Z,1011.94
2017-09-25T08:54:45.791Z,1012.02
2017-09-25T08:55:45.797Z,1011.98
2017-09-25T08:56:45.795Z,1012.02
2017-09-25T08:57:45.797Z,1012.15
2017-09-25T08:58:45.806Z,1012.30
2017-09-25T08:59:45.804Z,1012.55
2017-09-25T09:00:45.807Z,1012.08
2017-09-25T09:01:45.810Z,1012.14
2017-09-25T09:02:45.813Z,1012.01
2017-09-25T09:03:45.817Z,1011.92
2017-09-25T09:04:45.820Z,1011.90
2017-09-25T09:05:45.825Z,1011.93
2017-09-25T09:06:45.830Z,1012.02
2017-09-25T09:07:45.833Z,1011.95
2017-09-25T09:08:45.835Z,1012.35
2017-09-25T09:09:45.839Z,1012.02
2017-09-25T09:10:45.845Z,1011.98
2017-09-25T09:11:45.848Z,1011.97
2017-09-25T09:12:45.851Z,1011.95
2017-09-25T09:13:45.858Z,1011.88
2017-09-25T09:14:45.859Z,1011.90
2017-09-25T09:15:45.864Z,1011.97
2017-09-25T09:16:45.867Z,1011.89
2017-09-25T09:17:45.871Z,1011.84
2017-09-25T09:18:45.876Z,1011.82
2017-09-25T09:19:45.881Z,1011.82
2017-09-25T09:20:45.884Z,1011.80
2017-09-25T09:21:45.887Z,1011.81
2017-09-25T09:22:45.892Z,1011.84
2017-09-25T09:23:45.896Z,1011.79
2017-09-25T09:24:45.899Z,1011.84
2017-09-25T09:25:45.903Z,1011.83
2017-09-25T09:26:45.907Z,1011.82
2017-09-25T09:27:45.911Z,1011.84
2017-09-25T09:28:45.915Z,1011.83
2017-09-25T09:29:45.920Z,1011.82
2017-09-25T09:30:45.921Z,1011.88
2017-09-25T09:31:45.926Z,1011.92
2017-09-25T09:32:45.928Z,1011.93
2017-09-25T09:33:45.931Z,1011.97
2017-09-25T09:34:45.935Z,1011.96
2017-09-25T09:35:45.938Z,1012.08
2017-09-25T09:36:45.942Z,1011.92
2017-09-25T09:37:45.944Z,1011.89
2017-09-25T09:38:45.948Z,1011.81
2017-09-25T09:39:45.953Z,1011.79
2017-09-25T09:40:45.954Z,1011.79
2017-09-25T09:41:45.957Z,1011.82
2017-09-25T09:42:45.962Z,1011.85
2017-09-25T09:43:45.965Z,1011.78
2017-09-25T09:44:45.966Z,1012.35
2017-09-25T09:45:45.970Z,1012.41
2017-09-25T09:46:45.974Z,1012.40
2017-09-25T09:47:45.977Z,1012.36
2017-09-25T09:48:45.987Z,1011.87
2017-09-25T09:49:45.984Z,1012.50
2017-09-25T09:50:46.004Z,1011.87
2017-09-25T09:51:45.994Z,1012.16
2017-09-25T09:52:45.996Z,1012.03
2017-09-25T09:53:46.002Z,1011.94
2017-09-25T09:54:46.007Z,1011.91
2017-09-25T09:55:46.012Z,1011.89
2017-09-25T09:56:46.016Z,1011.80
2017-09-25T09:57:46.022Z,1011.82
2017-09-25T09:58:46.024Z,1011.88
2017-09-25T09:59:46.031Z,1012.12
2017-09-25T10:00:46.033Z,1012.00
2017-09-25T10:01:46.039Z,1012.51
2017-09-25T10:02:46.043Z,1012.57
2017-09-25T10:03:46.050Z,1012.56
2017-09-25T10:04:46.053Z,1012.54
2017-09-25T10:05:46.059Z,1012.55
2017-09-25T10:06:46.065Z,1012.58
2017-09-25T10:07:46.071Z,1012.58
2017-09-25T10:08:46.076Z,1012.57
2017-09-25T10:09:46.082Z,1012.54
2017-09-25T10:10:46.089Z,1012.58
2017-09-25T10:11:46.098Z,1012.60
2017-09-25T10:12:46.102Z,1012.51
2017-09-25T10:13:46.108Z,1012.51
2017-09-25T10:14:46.117Z,1012.57
2017-09-25T10:15:46.124Z,1012.59
2017-09-25T10:16:46.132Z,1012.59
2017-09-25T10:17:46.140Z,1012.54
2017-09-25T10:18:46.149Z,1012.01
2017-09-25T10:19:46.156Z,1012.48
2017-09-25T10:20:46.165Z,1012.53
2017-09-25T10:21:46.172Z,1012.24
2017-09-25T10:22:46.181Z,1012.02
2017-09-25T10:23:46.196Z,1012.08
2017-09-25T10:24:46.199Z,1012.36
2017-09-25T10:25:46.209Z,1012.31
2017-09-25T10:26:46.219Z,1012.39
2017-09-25T10:27:46.229Z,1011.71
2017-09-25T10:28:46.238Z,1011.70
2017-09-25T10:29:46.246Z,1011.75
2017-09-25T10:30:46.255Z,1011.78
2017-09-25T10:31:46.267Z,1011.73
2017-09-25T10:32:46.273Z,1011.82
2017-09-25T10:33:46.282Z,1011.66
2017-09-25T10:34:46.291Z,1011.64
2017-09-25T10:35:46.299Z,1011.69
2017-09-25T10:36:46.307Z,1011.73
2017-09-25T10:37:46.316Z,1011.72
2017-09-25T10:38:46.324Z,1011.68
2017-09-25T10:39:46.331Z,1011.66
2017-09-25T10:40:46.337Z,1011.60
2017-09-25T10:41:46.345Z,1011.57
2017-09-25T10:42:46.353Z,1011.52
2017-09-25T10:43:46.360Z,1011.46
2017-09-25T10:44:46.367Z,1011.52
2017-09-25T10:45:46.374Z,1011.48
2017-09-25T10:46:46.380Z,1011.51
2017-09-25T10:47:46.388Z,1011.50
2017-09-25T10:48:46.394Z,1011.44
2017-09-25T10:49:46.399Z,1011.45
2017-09-25T10:50:46.405Z,1011.53
2017-09-25T10:51:46.413Z,1011.52
2017-09-25T10:52:46.418Z,1011.50
2017-09-25T10:53:46.424Z,1011.51
2017-09-25T10:54:46.429Z,1011.56
2017-09-25T10:55:46.436Z,1011.47
2017-09-25T10:56:46.440Z,1011.51
2017-09-25T10:57:46.449Z,1011.54
2017-09-25T10:58:46.453Z,1011.55
2017-09-25T10:59:46.459Z,1011.48
2017-09-25T11:00:46.463Z,1011.52
2017-09-25T11:01:46.469Z,1011.48
2017-09-25T11:02:46.475Z,1011.49
2017-09-25T11:03:46.480Z,1011.51
2017-09-25T11:04:46.489Z,1011.53
2017-09-25T11:05:46.490Z,1011.47
2017-09-25T11:06:46.496Z,1011.46
2017-09-25T11:07:46.505Z,1011.54
2017-09-25T11:08:46.505Z,1011.56
2017-09-25T11:09:46.511Z,1011.52
2017-09-25T11:10:46.517Z,1011.53
2017-09-25T11:11:46.521Z,1011.50
2017-09-25T11:12:46.525Z,1011.46
2017-09-25T11:13:46.531Z,1011.40
2017-09-25T11:14:46.540Z,1011.39
2017-09-25T11:15:46.542Z,1011.29
2017-09-25T11:16:46.545Z,1011.36
2017-09-25T11:17:46.555Z,1011.35
2017-09-25T11:18:46.555Z,1011.34
2017-09-25T11:19:46.561Z,1011.36
2017-09-25T11:20:46.566Z,1011.35
2017-09-25T11:21:46.573Z,1011.37
2017-09-25T11:22:46.574Z,1011.34
2017-09-25T11:23:46.580Z,1011.34
2017-09-25T11:24:46.581Z,1011.34
2017-09-25T11:25:46.588Z,1011.30
2017-09-25T11:26:46.591Z,1011.33
2017-09-25T11:27:46.596Z,1011.34
2017-09-25T11:28:46.601Z,1011.29
2017-09-25T11:29:46.606Z,1011.32
2017-09-25T11:30:46.609Z,1011.27
2017-09-25T11:31:46.614Z,1011.22
2017-09-25T11:32:46.617Z,1011.25
2017-09-25T11:33:46.622Z,1011.25
2017-09-25T11:34:46.627Z,1011.26
2017-09-25T11:35:46.631Z,1011.28
2017-09-25T11:36:46.636Z,1011.27
2017-09-25T11:37:46.639Z,1011.28
2017-09-25T11:38:46.643Z,1011.27
2017-09-25T11:39:46.648Z,1011.25
2017-09-25T11:40:46.652Z,1011.25
2017-09-25T11:41:46.656Z,1011.32
2017-09-25T11:42:46.661Z,1011.33
2017-09-25T11:43:46.665Z,1011.31
2017-09-25T11:44:46.669Z,1011.28
2017-09-25T11:45:46.672Z,1011.30
2017-09-25T11:46:46.677Z,1011.32
2017-09-25T11:47:46.681Z,1011.25
2017-09-25T11:48:46.686Z,1011.25
2017-09-25T11:49:46.690Z,1011.25
2017-09-25T11:50:46.694Z,1011.24
2017-09-25T11:51:46.700Z,1011.27
2017-09-25T11:52:46.702Z,1011.26
2017-09-25T11:53:46.708Z,1011.28
2017-09-25T11:54:46.711Z,1011.29
2017-09-25T11:55:46.716Z,1011.27
2017-09-25T11:56:46.720Z,1011.24
2017-09-25T11:57:46.725Z,1011.24
2017-09-25T11:58:46.729Z,1011.18
2017-09-25T11:59:46.735Z,1011.15
2017-09-25T12:00:46.736Z,1011.16
2017-09-25T12:01:46.742Z,1011.08
2017-09-25T12:02:46.748Z,1011.09
2017-09-25T12:03:46.751Z,1011.10
2017-09-25T12:04:46.754Z,1011.18
2017-09-25T12:05:46.763Z,1011.12